Time;durP1;ratioP1;P1;durP2;ratioP2;P2;SDS_P1;SDS_P2;PMS_P1;PMS_P2;Temp;Humidity;BMP_temperature;BMP_pressure;BME280_temperature;BME280_humidity;BME280_pressure;Samples;Min_cycle;Max_cycle;Signal;HPM_P1;HPM_P2
2022/03/18 00:00:14;;;;;;;16.42;7.63;;;;;;;;;;5014664;28;93412;-71
2022/03/18 00:02:40;;;;;;;18.27;8.30;;;;;;;;;;5015270;28;93301;-71
2022/03/18 00:05:07;;;;;;;14.80;7.35;;;;;;;;;;5013033;28;93736;-71
2022/03/18 00:07:33;;;;;;;14.25;7.30;;;;;;;;;;5014999;28;92444;-71
2022/03/18 00:10:00;;;;;;;17.45;7.20;;;;;;;;;;5014304;28;94724;-71
2022/03/18 00:12:26;;;;;;;16.52;6.63;;;;;;;;;;5017878;28;94154;-71
2022/03/18 00:14:52;;;;;;;18.50;7.68;;;;;;;;;;5014066;28;94047;-71
2022/03/18 00:17:19;;;;;;;17.08;7.55;;;;;;;;;;5012123;28;96562;-71
2022/03/18 00:19:45;;;;;;;10.80;7.18;;;;;;;;;;5014086;28;92771;-71
2022/03/18 00:22:12;;;;;;;13.52;7.30;;;;;;;;;;5014310;28;93376;-71
2022/03/18 00:24:38;;;;;;;15.07;7.38;;;;;;;;;;5013682;28;94004;-71
2022/03/18 00:27:05;;;;;;;20.27;7.30;;;;;;;;;;5015099;28;92539;-71
2022/03/18 00:29:32;;;;;;;24.90;7.65;;;;;;;;;;5014100;28;93184;-71
2022/03/18 00:31:59;;;;;;;12.13;7.38;;;;;;;;;;5012399;28;93550;-71
2022/03/18 00:34:25;;;;;;;11.48;6.60;;;;;;;;;;5017195;28;92921;-71
2022/03/18 00:36:53;;;;;;;12.25;7.03;;;;;;;;;;5014613;28;94281;-71
2022/03/18 00:39:19;;;;;;;14.45;7.70;;;;;;;;;;5013518;28;92488;-71
2022/03/18 00:41:45;;;;;;;14.10;6.57;;;;;;;;;;5013289;28;94849;-71
2022/03/18 00:44:13;;;;;;;16.25;7.35;;;;;;;;;;5013536;28;94243;-71
2022/03/18 00:46:40;;;;;;;23.05;7.93;;;;;;;;;;5013121;28;93625;-71
2022/03/18 00:52:07;;;;;;;10.07;6.63;;;;;;;;;;5012712;28;94926;-71
2022/03/18 00:54:38;;;;;;;12.88;7.50;;;;;;;;;;5014113;28;92445;-71
2022/03/18 00:57:06;;;;;;;15.52;7.43;;;;;;;;;;5016661;28;93913;-71
2022/03/18 00:59:33;;;;;;;12.85;6.63;;;;;;;;;;5014149;28;92295;-71
2022/03/18 01:01:59;;;;;;;16.73;8.13;;;;;;;;;;5014054;28;92463;-71
2022/03/18 01:04:26;;;;;;;13.13;6.63;;;;;;;;;;5014019;28;94313;-71
2022/03/18 01:06:52;;;;;;;14.68;7.13;;;;;;;;;;5010061;28;94954;-71
2022/03/18 01:09:19;;;;;;;16.02;7.13;;;;;;;;;;4994091;28;96566;-71
2022/03/18 01:11:46;;;;;;;17.77;7.07;;;;;;;;;;4993867;28;94384;-71
2022/03/18 01:14:12;;;;;;;19.55;7.07;;;;;;;;;;5012123;28;93097;-71
2022/03/18 01:16:39;;;;;;;18.38;6.55;;;;;;;;;;5014245;28;93980;-71
2022/03/18 01:19:05;;;;;;;13.90;6.50;;;;;;;;;;5016394;28;93998;-71
2022/03/18 01:21:32;;;;;;;21.92;7.80;;;;;;;;;;5013093;28;93149;-71
2022/03/18 01:23:58;;;;;;;18.50;7.07;;;;;;;;;;5013475;28;93407;-71
2022/03/18 01:26:24;;;;;;;13.02;6.68;;;;;;;;;;5013631;28;92591;-71
2022/03/18 01:28:52;;;;;;;14.27;6.90;;;;;;;;;;5012564;28;94489;-71
2022/03/18 01:31:19;;;;;;;15.48;7.30;;;;;;;;;;5012199;28;95428;-71
2022/03/18 01:33:45;;;;;;;14.15;7.50;;;;;;;;;;5013183;28;92478;-71
2022/03/18 01:36:13;;;;;;;21.13;7.78;;;;;;;;;;5012972;28;93900;-70
2022/03/18 01:38:39;;;;;;;17.65;7.20;;;;;;;;;;5012870;28;94286;-71
2022/03/18 01:41:06;;;;;;;23.38;8.98;;;;;;;;;;5016177;28;92535;-70
2022/03/18 01:43:44;;;;;;;21.25;7.53;;;;;;;;;;5012632;28;93412;-70
2022/03/18 01:46:11;;;;;;;18.02;7.18;;;;;;;;;;5012777;28;92530;-71
2022/03/18 01:48:37;;;;;;;15.55;7.68;;;;;;;;;;5013772;28;94112;-71
2022/03/18 01:51:04;;;;;;;22.42;7.93;;;;;;;;;;5013098;28;93575;-71
2022/03/18 01:53:31;;;;;;;13.90;7.05;;;;;;;;;;5012745;28;92488;-70
2022/03/18 01:55:57;;;;;;;22.50;8.00;;;;;;;;;;5010653;28;95486;-70
2022/03/18 01:58:24;;;;;;;16.55;7.57;;;;;;;;;;5013462;28;93453;-71
2022/03/18 02:00:50;;;;;;;18.08;7.57;;;;;;;;;;5016035;28;92500;-71
2022/03/18 02:03:17;;;;;;;18.25;8.35;;;;;;;;;;5012368;28;93998;-70
2022/03/18 02:05:44;;;;;;;14.65;8.80;;;;;;;;;;5012374;28;92555;-70
2022/03/18 02:08:10;;;;;;;15.18;8.63;;;;;;;;;;5012006;28;93168;-70
2022/03/18 02:10:37;;;;;;;17.30;7.63;;;;;;;;;;5011686;28;95060;-70
2022/03/18 02:13:03;;;;;;;17.02;8.25;;;;;;;;;;5013849;28;91772;-70
2022/03/18 02:15:30;;;;;;;26.60;9.85;;;;;;;;;;5011668;28;93241;-70
2022/03/18 02:17:56;;;;;;;17.05;8.05;;;;;;;;;;5012276;28;93669;-70
2022/03/18 02:20:22;;;;;;;25.75;9.65;;;;;;;;;;5010531;28;94987;-70
2022/03/18 02:22:49;;;;;;;23.55;10.75;;;;;;;;;;5015892;28;96087;-70
2022/03/18 02:25:15;;;;;;;22.70;8.90;;;;;;;;;;5011152;28;93503;-70
2022/03/18 02:27:53;;;;;;;18.55;9.43;;;;;;;;;;5012734;28;93164;-70
2022/03/18 02:30:19;;;;;;;21.90;9.15;;;;;;;;;;5010771;28;93582;-70
2022/03/18 02:32:46;;;;;;;45.17;10.70;;;;;;;;;;5012989;28;92654;-70
2022/03/18 02:35:13;;;;;;;25.13;9.90;;;;;;;;;;5011155;28;94010;-70
2022/03/18 02:37:39;;;;;;;23.45;9.82;;;;;;;;;;5012146;28;92545;-70
2022/03/18 02:40:06;;;;;;;23.92;10.45;;;;;;;;;;5012214;28;92483;-70
2022/03/18 02:42:32;;;;;;;25.63;11.65;;;;;;;;;;5011883;28;94215;-70
2022/03/18 02:45:00;;;;;;;21.10;11.20;;;;;;;;;;5012035;28;95667;-70
2022/03/18 02:47:27;;;;;;;32.58;12.15;;;;;;;;;;5011928;28;96322;-71
2022/03/18 02:49:53;;;;;;;22.17;10.40;;;;;;;;;;5011152;28;93380;-71
2022/03/18 02:52:19;;;;;;;19.98;11.23;;;;;;;;;;5011380;28;92465;-71
2022/03/18 02:54:46;;;;;;;32.13;11.60;;;;;;;;;;5011614;28;93069;-71
2022/03/18 02:57:12;;;;;;;26.80;11.80;;;;;;;;;;5011464;28;94314;-71
2022/03/18 02:59:38;;;;;;;24.38;10.13;;;;;;;;;;5010607;28;92741;-71
2022/03/18 03:02:06;;;;;;;25.73;11.23;;;;;;;;;;5012502;28;94027;-71
2022/03/18 03:04:33;;;;;;;20.98;10.65;;;;;;;;;;5010561;28;93018;-71
2022/03/18 03:09:44;;;;;;;26.75;11.43;;;;;;;;;;5008537;28;96546;-71
2022/03/18 03:12:10;;;;;;;23.02;10.45;;;;;;;;;;5011660;28;92456;-71
2022/03/18 03:14:37;;;;;;;23.67;10.38;;;;;;;;;;5010020;28;94626;-71
2022/03/18 03:17:04;;;;;;;31.35;11.70;;;;;;;;;;5011446;28;93472;-70
2022/03/18 03:19:30;;;;;;;20.73;11.27;;;;;;;;;;5010181;28;92870;-71
2022/03/18 03:21:56;;;;;;;29.80;12.43;;;;;;;;;;5011782;28;92896;-71
2022/03/18 03:24:23;;;;;;;21.67;10.77;;;;;;;;;;5010559;28;93551;-71
2022/03/18 03:26:49;;;;;;;30.85;11.40;;;;;;;;;;5011364;28;91722;-70
2022/03/18 03:29:15;;;;;;;23.88;11.00;;;;;;;;;;5013919;28;93240;-70
2022/03/18 03:31:42;;;;;;;18.48;10.38;;;;;;;;;;5015221;28;92451;-70
2022/03/18 03:34:08;;;;;;;17.73;9.85;;;;;;;;;;5011929;28;95114;-70
2022/03/18 03:36:35;;;;;;;24.83;10.43;;;;;;;;;;5015770;28;93363;-70
2022/03/18 03:39:01;;;;;;;22.67;10.15;;;;;;;;;;5014272;28;92602;-70
2022/03/18 03:41:27;;;;;;;21.27;11.30;;;;;;;;;;5014053;28;94041;-70
2022/03/18 03:43:54;;;;;;;29.35;10.65;;;;;;;;;;5013930;28;94088;-70
2022/03/18 03:46:20;;;;;;;24.52;10.35;;;;;;;;;;5014413;28;92597;-71
2022/03/18 03:48:46;;;;;;;27.30;11.52;;;;;;;;;;5013806;28;93028;-70
2022/03/18 03:51:13;;;;;;;20.33;9.15;;;;;;;;;;5018369;28;92549;-70
2022/03/18 03:53:39;;;;;;;23.38;10.15;;;;;;;;;;5014787;28;93684;-70
2022/03/18 03:56:06;;;;;;;20.23;10.15;;;;;;;;;;5014052;28;93247;-70
2022/03/18 03:58:32;;;;;;;23.63;9.02;;;;;;;;;;5011850;28;95196;-70
2022/03/18 04:00:58;;;;;;;19.77;9.20;;;;;;;;;;5014578;28;96655;-70
2022/03/18 04:03:25;;;;;;;25.50;9.32;;;;;;;;;;5014725;28;93121;-70
2022/03/18 04:05:51;;;;;;;20.73;9.40;;;;;;;;;;5014688;28;92480;-70
2022/03/18 04:08:18;;;;;;;21.42;7.93;;;;;;;;;;5013273;28;93292;-70
2022/03/18 04:10:44;;;;;;;13.77;7.63;;;;;;;;;;5017460;28;94462;-71
2022/03/18 04:13:11;;;;;;;22.15;8.55;;;;;;;;;;5013917;28;93930;-70
2022/03/18 04:15:38;;;;;;;18.02;8.35;;;;;;;;;;5015361;28;93366;-69
2022/03/18 04:18:04;;;;;;;17.30;7.13;;;;;;;;;;5013520;28;92491;-69
2022/03/18 04:20:33;;;;;;;16.90;7.50;;;;;;;;;;5014857;28;94348;-70
2022/03/18 04:22:59;;;;;;;15.07;7.70;;;;;;;;;;5011951;28;97891;-70
2022/03/18 04:25:25;;;;;;;12.25;7.07;;;;;;;;;;5014603;28;92639;-70
2022/03/18 04:27:52;;;;;;;16.23;7.65;;;;;;;;;;5014152;28;95394;-70
2022/03/18 04:30:18;;;;;;;16.65;7.88;;;;;;;;;;5013811;28;93440;-71
2022/03/18 04:32:44;;;;;;;12.55;7.30;;;;;;;;;;5017417;28;92587;-71
2022/03/18 04:35:11;;;;;;;23.88;9.00;;;;;;;;;;5014122;28;93173;-71
2022/03/18 04:37:38;;;;;;;20.00;7.22;;;;;;;;;;5013444;28;93087;-71
2022/03/18 04:40:05;;;;;;;22.35;7.47;;;;;;;;;;5013618;28;93879;-71
2022/03/18 04:42:31;;;;;;;13.35;6.95;;;;;;;;;;5014257;28;92653;-71
2022/03/18 04:44:58;;;;;;;18.15;7.75;;;;;;;;;;5013259;28;92930;-71
2022/03/18 04:47:24;;;;;;;18.63;7.57;;;;;;;;;;5013068;28;94824;-71
2022/03/18 04:49:51;;;;;;;14.52;7.60;;;;;;;;;;5013595;28;94447;-71
2022/03/18 04:52:17;;;;;;;14.63;7.53;;;;;;;;;;5012918;28;92462;-71
2022/03/18 04:54:43;;;;;;;22.90;7.65;;;;;;;;;;5016321;28;94047;-71
2022/03/18 04:57:16;;;;;;;10.75;6.63;;;;;;;;;;5013340;28;93050;-70
2022/03/18 04:59:42;;;;;;;21.77;7.57;;;;;;;;;;5013423;28;94579;-70
2022/03/18 05:02:14;;;;;;;18.55;8.25;;;;;;;;;;5013737;28;94695;-71
2022/03/18 05:04:44;;;;;;;15.27;7.95;;;;;;;;;;5014213;27;91775;-71
2022/03/18 05:07:11;;;;;;;26.15;8.57;;;;;;;;;;5013339;28;93326;-71
2022/03/18 05:09:39;;;;;;;14.95;7.72;;;;;;;;;;5013009;28;93772;-70
2022/03/18 05:12:09;;;;;;;14.73;7.38;;;;;;;;;;5011982;28;94867;-70
2022/03/18 05:14:36;;;;;;;16.33;9.90;;;;;;;;;;5013539;28;95427;-70
2022/03/18 05:17:02;;;;;;;11.40;7.38;;;;;;;;;;5017300;28;94486;-71
2022/03/18 05:19:30;;;;;;;13.70;8.30;;;;;;;;;;5012144;28;93843;-70
2022/03/18 05:21:56;;;;;;;18.67;8.57;;;;;;;;;;5013980;28;94176;-71
2022/03/18 05:24:23;;;;;;;22.70;7.88;;;;;;;;;;5012884;28;92555;-71
2022/03/18 05:26:50;;;;;;;24.50;8.13;;;;;;;;;;5013805;28;93300;-71
2022/03/18 05:29:16;;;;;;;15.65;8.60;;;;;;;;;;5012452;28;93706;-70
2022/03/18 05:31:43;;;;;;;19.75;9.02;;;;;;;;;;5014079;28;93058;-70
2022/03/18 05:34:09;;;;;;;23.58;7.93;;;;;;;;;;5012355;28;93339;-70
2022/03/18 05:36:35;;;;;;;17.70;7.97;;;;;;;;;;5011216;28;96962;-70
2022/03/18 05:39:02;;;;;;;15.27;7.35;;;;;;;;;;5016801;28;92428;-70
2022/03/18 05:41:28;;;;;;;15.45;7.13;;;;;;;;;;5012419;28;94239;-70
2022/03/18 05:43:54;;;;;;;16.70;7.45;;;;;;;;;;5013050;28;92476;-70
2022/03/18 05:46:21;;;;;;;24.25;8.82;;;;;;;;;;5012951;28;93200;-70
2022/03/18 05:48:47;;;;;;;28.35;8.85;;;;;;;;;;5012699;28;94229;-70
2022/03/18 05:51:14;;;;;;;17.67;8.40;;;;;;;;;;5012183;28;92468;-70
2022/03/18 05:53:40;;;;;;;14.50;8.05;;;;;;;;;;5013609;28;93070;-70
2022/03/18 05:58:51;;;;;;;17.52;8.90;;;;;;;;;;5013439;28;92483;-70
2022/03/18 06:01:19;;;;;;;25.65;9.02;;;;;;;;;;5013034;28;95252;-70
2022/03/18 06:03:48;;;;;;;22.60;8.68;;;;;;;;;;5013190;28;92551;-70
2022/03/18 06:06:15;;;;;;;24.83;8.55;;;;;;;;;;5012297;28;94393;-70
2022/03/18 06:14:11;;;;;;;27.42;9.00;;;;;;;;;;5012334;28;94029;-70
2022/03/18 06:16:39;;;;;;;19.13;9.07;;;;;;;;;;5011157;28;93491;-70
2022/03/18 06:19:05;;;;;;;15.70;9.27;;;;;;;;;;5013900;28;91778;-70
2022/03/18 06:21:32;;;;;;;22.65;10.40;;;;;;;;;;5014925;28;93057;-70
2022/03/18 06:23:58;;;;;;;20.00;9.95;;;;;;;;;;5011845;28;92492;-70
2022/03/18 06:26:25;;;;;;;20.98;8.65;;;;;;;;;;5010925;28;95620;-70
2022/03/18 06:28:51;;;;;;;17.23;8.85;;;;;;;;;;5013011;28;94217;-70
2022/03/18 06:31:17;;;;;;;18.38;8.60;;;;;;;;;;5011896;28;93002;-70
2022/03/18 06:33:44;;;;;;;15.25;8.38;;;;;;;;;;5013082;28;93946;-71
2022/03/18 06:36:11;;;;;;;15.55;8.75;;;;;;;;;;5012314;28;94205;-70
2022/03/18 06:38:37;;;;;;;25.10;7.68;;;;;;;;;;5012307;28;92806;-70
2022/03/18 06:41:04;;;;;;;28.15;8.73;;;;;;;;;;5012226;28;93267;-70
2022/03/18 06:43:30;;;;;;;15.57;8.10;;;;;;;;;;5015581;28;92716;-70
2022/03/18 06:45:57;;;;;;;23.08;8.80;;;;;;;;;;5012585;28;94889;-70
2022/03/18 06:48:24;;;;;;;20.92;8.93;;;;;;;;;;5012525;28;94166;-70
2022/03/18 06:50:51;;;;;;;25.52;8.40;;;;;;;;;;5009991;28;94936;-70
2022/03/18 06:53:17;;;;;;;25.27;8.63;;;;;;;;;;5012677;28;96210;-70
2022/03/18 06:55:44;;;;;;;17.58;8.45;;;;;;;;;;5011934;28;93491;-70
2022/03/18 06:58:10;;;;;;;28.17;8.80;;;;;;;;;;5011844;28;92918;-70
2022/03/18 07:00:39;;;;;;;16.27;8.25;;;;;;;;;;5011754;28;93782;-71
2022/03/18 07:03:06;;;;;;;19.13;9.20;;;;;;;;;;5012616;28;94154;-70
2022/03/18 07:05:32;;;;;;;12.40;8.07;;;;;;;;;;5015717;28;92468;-70
2022/03/18 07:07:59;;;;;;;15.10;8.63;;;;;;;;;;5016924;28;92833;-70
2022/03/18 07:10:25;;;;;;;22.38;8.73;;;;;;;;;;5015464;28;92448;-70
2022/03/18 07:12:52;;;;;;;20.83;8.55;;;;;;;;;;5015538;28;94075;-70
2022/03/18 07:15:18;;;;;;;21.00;9.35;;;;;;;;;;5012882;28;96596;-70
2022/03/18 07:18:00;;;;;;;14.52;8.85;;;;;;;;;;5016294;28;93078;-70
2022/03/18 07:20:28;;;;;;;18.55;8.52;;;;;;;;;;5014468;28;94024;-70
2022/03/18 07:23:07;;;;;;;19.55;10.65;;;;;;;;;;5015547;28;93147;-70
2022/03/18 07:25:35;;;;;;;17.33;9.10;;;;;;;;;;5003433;28;94131;-71
2022/03/18 07:28:02;;;;;;;19.15;10.80;;;;;;;;;;5018781;28;94290;-71
2022/03/18 07:30:28;;;;;;;25.42;9.88;;;;;;;;;;5014481;28;92624;-72
2022/03/18 07:32:55;;;;;;;21.25;10.50;;;;;;;;;;5015746;28;93919;-71
2022/03/18 07:35:22;;;;;;;21.95;10.60;;;;;;;;;;5013431;28;93414;-70
2022/03/18 07:37:49;;;;;;;18.75;11.00;;;;;;;;;;5015332;28;92449;-72
2022/03/18 07:40:17;;;;;;;27.15;11.85;;;;;;;;;;5011873;28;95483;-72
2022/03/18 07:42:44;;;;;;;30.00;10.82;;;;;;;;;;5014119;28;94451;-71
2022/03/18 07:45:12;;;;;;;24.92;11.13;;;;;;;;;;5011634;28;93226;-72
2022/03/18 07:47:39;;;;;;;20.85;10.30;;;;;;;;;;5013362;28;93497;-72
2022/03/18 07:50:05;;;;;;;21.80;10.25;;;;;;;;;;5016816;28;94251;-72
2022/03/18 07:52:32;;;;;;;31.17;10.88;;;;;;;;;;5012521;28;93433;-72
2022/03/18 07:54:58;;;;;;;22.98;11.13;;;;;;;;;;5013920;28;93284;-72
2022/03/18 07:57:24;;;;;;;25.00;11.68;;;;;;;;;;5010002;28;92978;-72
2022/03/18 07:59:51;;;;;;;24.05;11.23;;;;;;;;;;5013947;28;93230;-72
2022/03/18 08:02:17;;;;;;;29.98;12.98;;;;;;;;;;5004714;28;93330;-72
2022/03/18 08:04:45;;;;;;;20.73;11.55;;;;;;;;;;5008956;28;94890;-72
2022/03/18 08:07:11;;;;;;;19.17;11.52;;;;;;;;;;5011697;28;96320;-72
2022/03/18 08:09:38;;;;;;;19.75;10.68;;;;;;;;;;5004197;27;93376;-72
2022/03/18 08:12:05;;;;;;;30.10;11.75;;;;;;;;;;5008525;28;93439;-71
2022/03/18 08:14:32;;;;;;;18.85;10.60;;;;;;;;;;5006586;28;96430;-71
2022/03/18 08:16:58;;;;;;;22.58;10.60;;;;;;;;;;5002964;28;95338;-72
2022/03/18 08:19:25;;;;;;;28.25;10.40;;;;;;;;;;5005478;28;93976;-71
2022/03/18 08:21:51;;;;;;;17.40;9.88;;;;;;;;;;5002155;28;94594;-72
2022/03/18 08:24:18;;;;;;;15.95;10.35;;;;;;;;;;5006440;28;94434;-72
2022/03/18 08:26:44;;;;;;;18.35;9.35;;;;;;;;;;5004436;28;93227;-72
2022/03/18 08:29:10;;;;;;;16.27;8.80;;;;;;;;;;5003827;28;96715;-72
2022/03/18 08:31:37;;;;;;;19.77;10.32;;;;;;;;;;5007910;28;94168;-72
2022/03/18 08:34:03;;;;;;;21.73;9.52;;;;;;;;;;5005278;28;94098;-71
2022/03/18 08:36:30;;;;;;;22.10;9.15;;;;;;;;;;5007653;28;94120;-71
2022/03/18 08:38:56;;;;;;;17.25;8.70;;;;;;;;;;5005373;28;93992;-70
2022/03/18 08:41:22;;;;;;;16.10;9.38;;;;;;;;;;5005512;28;93235;-72
2022/03/18 08:43:49;;;;;;;22.20;9.10;;;;;;;;;;5005956;28;94543;-71
2022/03/18 08:46:15;;;;;;;13.25;8.43;;;;;;;;;;5006223;28;93282;-71
2022/03/18 08:48:43;;;;;;;20.00;8.73;;;;;;;;;;5004919;27;93369;-71
2022/03/18 08:51:10;;;;;;;15.57;8.40;;;;;;;;;;5004056;28;94485;-70
2022/03/18 08:53:37;;;;;;;14.57;8.02;;;;;;;;;;5006111;28;96344;-70
2022/03/18 08:56:03;;;;;;;16.92;7.82;;;;;;;;;;5006783;28;92550;-71
2022/03/18 08:58:30;;;;;;;15.65;7.78;;;;;;;;;;5001109;28;93974;-71
2022/03/18 09:00:56;;;;;;;11.80;7.32;;;;;;;;;;5021486;28;94248;-72
2022/03/18 09:03:23;;;;;;;11.45;7.00;;;;;;;;;;5010591;28;92508;-71
2022/03/18 09:05:49;;;;;;;18.45;6.72;;;;;;;;;;4972860;28;1118347;-71
2022/03/18 09:08:15;;;;;;;21.83;7.70;;;;;;;;;;5010293;28;94096;-71
2022/03/18 09:10:42;;;;;;;23.55;8.10;;;;;;;;;;5017748;28;91726;-71
2022/03/18 09:13:08;;;;;;;13.85;5.85;;;;;;;;;;5011757;28;93186;-71
2022/03/18 09:15:35;;;;;;;15.15;7.07;;;;;;;;;;5016533;28;93394;-71
2022/03/18 09:18:01;;;;;;;11.45;7.18;;;;;;;;;;4995864;28;96637;-71
2022/03/18 09:20:27;;;;;;;19.00;6.10;;;;;;;;;;5010672;28;94035;-71
2022/03/18 09:22:54;;;;;;;9.52;5.45;;;;;;;;;;5012587;28;92993;-71
2022/03/18 09:25:20;;;;;;;12.07;6.95;;;;;;;;;;5013002;28;93941;-71
2022/03/18 09:27:46;;;;;;;12.85;5.82;;;;;;;;;;5012005;28;94268;-71
2022/03/18 09:30:13;;;;;;;16.67;6.15;;;;;;;;;;5013701;28;92490;-70
2022/03/18 09:32:43;;;;;;;10.73;5.28;;;;;;;;;;5013159;28;93326;-70
2022/03/18 09:35:10;;;;;;;13.35;5.90;;;;;;;;;;5014214;28;92581;-70
2022/03/18 09:37:36;;;;;;;12.13;5.45;;;;;;;;;;5017296;28;92454;-70
2022/03/18 09:40:05;;;;;;;12.43;5.72;;;;;;;;;;5013263;28;93470;-69
2022/03/18 09:42:59;;;;;;;22.33;6.43;;;;;;;;;;5003851;28;95748;-69
2022/03/18 09:45:30;;;;;;;17.38;5.50;;;;;;;;;;5010350;28;95706;-69
2022/03/18 09:47:58;;;;;;;15.13;6.38;;;;;;;;;;5006214;28;94132;-69
2022/03/18 09:50:24;;;;;;;13.13;6.18;;;;;;;;;;5006971;28;93124;-70
2022/03/18 09:52:51;;;;;;;13.10;5.85;;;;;;;;;;5006320;28;93865;-70
2022/03/18 09:55:17;;;;;;;23.30;6.93;;;;;;;;;;5006147;28;93855;-70
2022/03/18 09:57:43;;;;;;;21.17;6.30;;;;;;;;;;5004479;28;94729;-70
2022/03/18 10:00:10;;;;;;;22.73;6.20;;;;;;;;;;5009391;27;94145;-70
2022/03/18 10:02:39;;;;;;;12.02;5.40;;;;;;;;;;5006700;28;95749;-70
2022/03/18 10:05:10;;;;;;;16.83;6.35;;;;;;;;;;5005201;28;94594;-70
2022/03/18 10:07:37;;;;;;;16.92;6.32;;;;;;;;;;5003338;28;95981;-70
2022/03/18 10:10:08;;;;;;;11.48;5.88;;;;;;;;;;5006701;28;92640;-70
2022/03/18 10:12:35;;;;;;;11.57;6.60;;;;;;;;;;5005706;28;93982;-70
2022/03/18 10:15:24;;;;;;;14.32;6.10;;;;;;;;;;5002623;28;93014;-70
2022/03/18 10:17:52;;;;;;;14.80;6.68;;;;;;;;;;5003724;28;92604;-70
2022/03/18 10:20:25;;;;;;;14.27;6.32;;;;;;;;;;5008363;28;94638;-71
2022/03/18 10:22:52;;;;;;;9.98;6.03;;;;;;;;;;5006437;28;93342;-72
2022/03/18 10:25:38;;;;;;;23.48;7.35;;;;;;;;;;5005331;28;95597;-69
2022/03/18 10:28:37;;;;;;;14.68;6.57;;;;;;;;;;5002257;28;95263;-70
2022/03/18 10:31:25;;;;;;;20.13;6.95;;;;;;;;;;5006923;28;94156;-70
2022/03/18 10:37:12;;;;;;;12.30;6.03;;;;;;;;;;5004220;28;94014;-70
2022/03/18 10:39:39;;;;;;;20.90;6.95;;;;;;;;;;5003252;28;94020;-71
2022/03/18 10:42:17;;;;;;;12.80;5.30;;;;;;;;;;5006904;28;94393;-70
2022/03/18 10:44:51;;;;;;;12.75;5.00;;;;;;;;;;5008681;28;94167;-70
2022/03/18 10:47:34;;;;;;;11.68;5.72;;;;;;;;;;5003342;28;94365;-70
2022/03/18 10:50:00;;;;;;;18.08;6.13;;;;;;;;;;5009468;28;93932;-71
2022/03/18 10:52:28;;;;;;;18.27;5.35;;;;;;;;;;5013147;28;91697;-72
2022/03/18 10:55:13;;;;;;;13.90;5.13;;;;;;;;;;5013130;28;92695;-70
2022/03/18 10:57:46;;;;;;;10.93;4.75;;;;;;;;;;5004134;28;93919;-70
2022/03/18 11:00:13;;;;;;;12.70;5.05;;;;;;;;;;5001656;28;95058;-71
2022/03/18 11:02:42;;;;;;;17.30;5.80;;;;;;;;;;5005944;28;96426;-71
2022/03/18 11:05:10;;;;;;;9.77;5.50;;;;;;;;;;5002972;28;94179;-71
2022/03/18 11:07:41;;;;;;;11.70;5.88;;;;;;;;;;5007346;28;93897;-71
2022/03/18 11:12:54;;;;;;;12.23;5.80;;;;;;;;;;5011329;28;92498;-71
2022/03/18 11:15:21;;;;;;;13.75;5.07;;;;;;;;;;5010098;28;93898;-71
2022/03/18 11:17:48;;;;;;;14.18;5.78;;;;;;;;;;5005578;28;94947;-71
2022/03/18 11:20:17;;;;;;;13.07;5.82;;;;;;;;;;5004875;28;93458;-71
2022/03/18 11:22:44;;;;;;;9.15;4.80;;;;;;;;;;5008136;28;93297;-71
2022/03/18 11:25:13;;;;;;;11.32;5.32;;;;;;;;;;5004763;27;95623;-71
2022/03/18 11:27:41;;;;;;;12.82;5.07;;;;;;;;;;5011060;28;92878;-71
2022/03/18 11:30:21;;;;;;;12.20;5.15;;;;;;;;;;5007651;27;94419;-71
2022/03/18 11:33:05;;;;;;;16.58;5.38;;;;;;;;;;5004616;28;92656;-71
2022/03/18 11:35:55;;;;;;;13.93;5.18;;;;;;;;;;5011992;28;92402;-71
2022/03/18 11:38:25;;;;;;;14.50;5.78;;;;;;;;;;5008410;28;94216;-71
2022/03/18 11:40:53;;;;;;;12.80;5.40;;;;;;;;;;5010450;28;92472;-69
2022/03/18 11:43:36;;;;;;;13.52;4.60;;;;;;;;;;5011739;28;93542;-70
2022/03/18 11:46:16;;;;;;;11.00;4.38;;;;;;;;;;5011443;28;93449;-70
2022/03/18 11:48:44;;;;;;;8.88;3.92;;;;;;;;;;5012571;28;92538;-70
2022/03/18 11:51:26;;;;;;;6.75;4.00;;;;;;;;;;5016274;28;94825;-71
2022/03/18 11:53:54;;;;;;;12.40;4.07;;;;;;;;;;5032626;27;93489;-69
2022/03/18 11:56:40;;;;;;;11.55;4.95;;;;;;;;;;5008215;28;93257;-70
2022/03/18 11:59:25;;;;;;;8.57;5.55;;;;;;;;;;4995680;28;93386;-70
2022/03/18 12:01:52;;;;;;;8.65;5.00;;;;;;;;;;4994959;28;92502;-70
2022/03/18 12:04:36;;;;;;;7.47;4.70;;;;;;;;;;4999939;28;93461;-70
2022/03/18 12:07:12;;;;;;;5.55;4.55;;;;;;;;;;5014219;28;93144;-70
2022/03/18 12:09:55;;;;;;;7.88;4.03;;;;;;;;;;5015803;28;91777;-70
2022/03/18 12:12:26;;;;;;;5.60;3.25;;;;;;;;;;5015006;28;92950;-70
2022/03/18 12:14:53;;;;;;;10.73;4.63;;;;;;;;;;5014448;28;94232;-70
2022/03/18 12:17:21;;;;;;;10.25;5.05;;;;;;;;;;5016797;28;94871;-71
2022/03/18 12:19:49;;;;;;;8.48;4.28;;;;;;;;;;5015109;28;93315;-70
2022/03/18 12:22:16;;;;;;;10.82;4.85;;;;;;;;;;5009535;28;94887;-70
2022/03/18 12:24:42;;;;;;;7.93;3.88;;;;;;;;;;5015073;28;93118;-70
2022/03/18 12:27:08;;;;;;;9.30;4.30;;;;;;;;;;5014593;28;93785;-70
2022/03/18 12:29:35;;;;;;;9.10;4.57;;;;;;;;;;5013641;28;93177;-71
2022/03/18 12:32:05;;;;;;;12.13;3.95;;;;;;;;;;5014898;28;94093;-70
2022/03/18 12:34:33;;;;;;;9.00;4.13;;;;;;;;;;5015211;28;92654;-70
2022/03/18 12:37:01;;;;;;;8.18;4.40;;;;;;;;;;5016579;28;93378;-71
2022/03/18 12:39:27;;;;;;;9.80;5.30;;;;;;;;;;5011527;28;94293;-71
2022/03/18 12:42:07;;;;;;;14.13;4.20;;;;;;;;;;5013378;28;94852;-70
2022/03/18 12:44:34;;;;;;;9.80;4.03;;;;;;;;;;5011166;28;95801;-68
2022/03/18 12:47:01;;;;;;;7.18;3.83;;;;;;;;;;5005153;28;94176;-68
2022/03/18 12:49:32;;;;;;;7.47;4.00;;;;;;;;;;5006652;27;93437;-68
2022/03/18 12:51:59;;;;;;;10.27;4.25;;;;;;;;;;5008434;28;93377;-68
2022/03/18 12:54:25;;;;;;;8.70;4.20;;;;;;;;;;5012648;28;93461;-68
2022/03/18 12:57:23;;;;;;;13.23;3.90;;;;;;;;;;5003327;27;93567;-68
2022/03/18 12:59:54;;;;;;;4.97;4.07;;;;;;;;;;5006190;28;94323;-68
2022/03/18 13:02:41;;;;;;;11.98;4.07;;;;;;;;;;5006700;28;94013;-68
2022/03/18 13:05:09;;;;;;;11.82;3.90;;;;;;;;;;5006198;28;94059;-68
2022/03/18 13:07:35;;;;;;;7.00;4.05;;;;;;;;;;5006317;28;95985;-68
2022/03/18 13:10:03;;;;;;;4.75;2.60;;;;;;;;;;5005547;28;95442;-68
2022/03/18 13:12:30;;;;;;;7.00;3.75;;;;;;;;;;5006207;27;93608;-68
2022/03/18 13:15:11;;;;;;;5.32;3.33;;;;;;;;;;5004339;28;94126;-68
2022/03/18 13:17:37;;;;;;;6.75;3.22;;;;;;;;;;5012483;28;92951;-68
2022/03/18 13:20:04;;;;;;;11.65;3.42;;;;;;;;;;5014183;28;94516;-68
2022/03/18 13:22:30;;;;;;;9.80;3.17;;;;;;;;;;5015832;28;93477;-68
2022/03/18 13:25:00;;;;;;;6.97;3.28;;;;;;;;;;5012225;27;95059;-69
2022/03/18 13:27:26;;;;;;;5.22;2.90;;;;;;;;;;5011197;28;93377;-68
2022/03/18 13:32:51;;;;;;;12.40;2.55;;;;;;;;;;5005215;28;94953;-68
2022/03/18 13:35:18;;;;;;;7.00;2.60;;;;;;;;;;5012394;28;93435;-68
2022/03/18 13:38:03;;;;;;;8.93;2.60;;;;;;;;;;5012804;28;92577;-68
2022/03/18 13:40:30;;;;;;;9.73;2.70;;;;;;;;;;5012992;28;93095;-68
2022/03/18 13:42:58;;;;;;;10.00;2.88;;;;;;;;;;5012265;28;94176;-68
2022/03/18 13:45:25;;;;;;;8.75;2.50;;;;;;;;;;5015724;28;92505;-68
2022/03/18 13:47:52;;;;;;;6.50;3.25;;;;;;;;;;5011745;28;94356;-68
2022/03/18 13:50:19;;;;;;;6.95;2.75;;;;;;;;;;5008684;28;93778;-69
2022/03/18 13:52:45;;;;;;;7.25;3.00;;;;;;;;;;5007277;28;93630;-68
2022/03/18 13:55:27;;;;;;;7.03;2.72;;;;;;;;;;5013919;28;93283;-68
2022/03/18 13:57:53;;;;;;;6.57;2.17;;;;;;;;;;5007754;28;94946;-68
2022/03/18 14:00:29;;;;;;;7.85;3.15;;;;;;;;;;5012932;28;95625;-68
2022/03/18 14:03:00;;;;;;;3.95;2.50;;;;;;;;;;5012472;28;94241;-68
2022/03/18 14:05:26;;;;;;;5.50;2.88;;;;;;;;;;5007162;28;92571;-68
2022/03/18 14:07:53;;;;;;;4.72;2.53;;;;;;;;;;5013668;27;93545;-69
2022/03/18 14:10:19;;;;;;;16.27;2.65;;;;;;;;;;5008509;28;93601;-68
2022/03/18 14:12:59;;;;;;;4.30;2.42;;;;;;;;;;5007714;28;93035;-70
2022/03/18 14:15:30;;;;;;;4.80;2.97;;;;;;;;;;5007370;28;93032;-71
2022/03/18 14:17:59;;;;;;;6.05;3.00;;;;;;;;;;5007842;28;93410;-72
2022/03/18 14:20:28;;;;;;;7.07;2.75;;;;;;;;;;5003070;28;94051;-70
2022/03/18 14:22:57;;;;;;;7.60;2.63;;;;;;;;;;4990666;28;96579;-70
2022/03/18 14:25:28;;;;;;;5.78;3.08;;;;;;;;;;4993203;28;92503;-70
2022/03/18 14:27:54;;;;;;;5.82;3.28;;;;;;;;;;4999026;28;93324;-70
2022/03/18 14:30:22;;;;;;;6.28;2.88;;;;;;;;;;5015473;28;94249;-70
2022/03/18 14:32:50;;;;;;;9.60;3.95;;;;;;;;;;5011259;28;93727;-70
2022/03/18 14:35:17;;;;;;;7.72;2.63;;;;;;;;;;5012308;28;93545;-70
2022/03/18 14:37:44;;;;;;;6.07;3.30;;;;;;;;;;5012988;28;92489;-70
2022/03/18 14:40:12;;;;;;;8.45;3.05;;;;;;;;;;5013229;28;93965;-70
2022/03/18 14:42:40;;;;;;;11.38;3.30;;;;;;;;;;5012077;28;93313;-70
2022/03/18 14:45:11;;;;;;;7.78;3.67;;;;;;;;;;5012800;28;92507;-69
2022/03/18 14:47:37;;;;;;;8.75;3.67;;;;;;;;;;5012009;28;94839;-69
2022/03/18 14:50:04;;;;;;;13.45;3.47;;;;;;;;;;5014741;28;94172;-69
2022/03/18 14:52:31;;;;;;;5.30;3.20;;;;;;;;;;5012719;28;92896;-70
2022/03/18 14:57:42;;;;;;;11.63;3.80;;;;;;;;;;5012499;28;92495;-70
2022/03/18 15:00:09;;;;;;;8.40;3.90;;;;;;;;;;5013494;27;93370;-70
2022/03/18 15:02:36;;;;;;;10.75;3.45;;;;;;;;;;5012775;28;93681;-70